Strool, South Dakota
Current Conditions -  °F | °C
As of 5:53 PM on Monday 24 Nov 2014 (Local Time) from KHEI Reporting Station
Broken Clouds Broken Clouds  
Wind Chill: 12°   Ceiling: 5000
Heat Index: 21°   Visibility: 10mi
Dew Point: 17°   Wind: 7mph
Humidity: 85%   Direction: 280°W
Pressure: 30.01"   Gusts: NA
Location:  45.6029°N, 102.827°W
Report Text: KHEI 250053Z AUTO 28006KT 10SM BKN050 M06/M08 A3001 RMK AO2 SLP209 T10611083
Loading
Personal Weather Stations






























Interactive Weather Map New forecast layout! Learn more

10-Day Weather Forecast

Advertisements
Track Severe Weather on mobile